createdAt,value
2017-09-25T00:01:17.202Z,11.30
2017-09-25T00:03:43.945Z,11.20
2017-09-25T00:06:10.668Z,11.20
2017-09-25T00:08:37.995Z,11.20
2017-09-25T00:11:04.873Z,11.20
2017-09-25T00:13:31.290Z,11.20
2017-09-25T00:15:58.154Z,11.20
2017-09-25T00:18:24.355Z,11.20
2017-09-25T00:20:50.715Z,11.20
2017-09-25T00:23:17.850Z,11.20
2017-09-25T00:25:44.057Z,11.10
2017-09-25T00:28:10.918Z,11.20
2017-09-25T00:30:37.175Z,11.20
2017-09-25T00:33:03.778Z,11.10
2017-09-25T00:35:31.219Z,11.10
2017-09-25T00:37:57.451Z,11.00
2017-09-25T00:40:23.910Z,10.90
2017-09-25T00:42:51.175Z,10.90
2017-09-25T00:45:18.282Z,10.80
2017-09-25T00:47:45.326Z,10.80
2017-09-25T00:50:11.767Z,10.80
2017-09-25T00:52:51.192Z,10.80
2017-09-25T00:55:27.657Z,10.80
2017-09-25T00:57:55.360Z,10.80
2017-09-25T01:00:34.800Z,10.70
2017-09-25T01:03:13.107Z,10.70
2017-09-25T01:05:51.648Z,10.60
2017-09-25T01:08:18.306Z,10.60
2017-09-25T01:10:47.784Z,10.60
2017-09-25T01:13:14.589Z,10.60
2017-09-25T01:15:41.316Z,10.60
2017-09-25T01:18:09.310Z,10.70
2017-09-25T01:20:36.163Z,10.60
2017-09-25T01:23:03.472Z,10.60
2017-09-25T01:25:31.261Z,10.60
2017-09-25T01:27:57.660Z,10.60
2017-09-25T01:30:25.071Z,10.60
2017-09-25T01:32:52.068Z,10.60
2017-09-25T01:35:19.132Z,10.60
2017-09-25T01:37:45.600Z,10.60
2017-09-25T01:40:12.588Z,10.60
2017-09-25T01:42:39.545Z,10.60
2017-09-25T01:45:05.738Z,10.50
2017-09-25T01:47:32.815Z,10.50
2017-09-25T01:49:59.925Z,10.50
2017-09-25T01:52:26.903Z,10.40
2017-09-25T01:54:53.862Z,10.40
2017-09-25T01:57:20.152Z,10.40
2017-09-25T01:59:46.681Z,10.40
2017-09-25T02:02:13.685Z,10.40
2017-09-25T02:04:41.359Z,10.30
2017-09-25T02:07:08.167Z,10.20
2017-09-25T02:09:35.358Z,10.10
2017-09-25T02:12:03.038Z,10.10
2017-09-25T02:14:29.773Z,10.00
2017-09-25T02:16:57.931Z,9.90
2017-09-25T02:19:24.599Z,9.90
2017-09-25T02:21:52.510Z,10.10
2017-09-25T02:24:20.147Z,10.10
2017-09-25T02:26:47.990Z,10.10
2017-09-25T02:29:14.782Z,10.10
2017-09-25T02:31:42.025Z,10.10
2017-09-25T02:34:09.294Z,10.10
2017-09-25T02:36:35.755Z,10.10
2017-09-25T02:39:04.375Z,10.10
2017-09-25T02:41:32.367Z,10.10
2017-09-25T02:43:59.384Z,10.10
2017-09-25T02:46:27.328Z,10.20
2017-09-25T02:48:53.941Z,10.20
2017-09-25T02:51:21.464Z,10.20
2017-09-25T02:53:48.870Z,10.10
2017-09-25T02:56:15.859Z,10.10
2017-09-25T02:58:42.825Z,10.20
2017-09-25T03:01:09.109Z,10.10
2017-09-25T03:03:35.328Z,10.10
2017-09-25T03:06:02.185Z,10.10
2017-09-25T03:08:29.983Z,10.10
2017-09-25T03:10:56.217Z,10.10
2017-09-25T03:13:22.579Z,10.20
2017-09-25T03:15:50.589Z,10.10
2017-09-25T03:18:17.904Z,10.00
2017-09-25T03:20:44.894Z,10.00
2017-09-25T03:23:12.534Z,10.00
2017-09-25T03:25:38.766Z,10.00
2017-09-25T03:28:05.520Z,10.00
2017-09-25T03:30:32.704Z,10.10
2017-09-25T03:33:00.103Z,10.10
2017-09-25T03:35:26.304Z,10.00
2017-09-25T03:37:52.564Z,10.10
2017-09-25T03:40:19.556Z,10.10
2017-09-25T03:42:46.747Z,10.10
2017-09-25T03:45:13.322Z,10.00
2017-09-25T03:47:41.012Z,10.10
2017-09-25T03:50:08.435Z,10.10
2017-09-25T03:52:35.660Z,10.10
2017-09-25T03:55:02.821Z,10.10
2017-09-25T03:57:29.933Z,10.10
2017-09-25T03:59:57.543Z,10.20
2017-09-25T04:02:25.794Z,10.20
2017-09-25T04:04:53.300Z,10.30
2017-09-25T04:07:19.628Z,10.30
2017-09-25T04:09:46.021Z,10.30
2017-09-25T04:12:13.109Z,10.20
2017-09-25T04:14:39.421Z,10.20
2017-09-25T04:17:05.910Z,10.30
2017-09-25T04:19:33.505Z,10.30
2017-09-25T04:22:00.549Z,10.30
2017-09-25T04:24:27.790Z,10.30
2017-09-25T04:26:54.824Z,10.30
2017-09-25T04:29:22.286Z,10.30
2017-09-25T04:31:50.220Z,10.40
2017-09-25T04:34:17.475Z,10.30
2017-09-25T04:36:44.844Z,10.40
2017-09-25T04:39:11.044Z,10.40
2017-09-25T04:41:38.039Z,10.40
2017-09-25T04:44:04.544Z,10.40
2017-09-25T04:46:31.772Z,10.50
2017-09-25T04:48:59.022Z,10.50
2017-09-25T04:51:25.438Z,10.50
2017-09-25T04:53:52.030Z,10.60
2017-09-25T04:56:18.392Z,10.60
2017-09-25T04:58:45.485Z,10.60
2017-09-25T05:01:12.519Z,10.60
2017-09-25T05:03:38.943Z,10.60
2017-09-25T05:06:05.523Z,10.60
2017-09-25T05:08:32.698Z,10.60
2017-09-25T05:11:00.744Z,10.70
2017-09-25T05:13:27.382Z,10.70
2017-09-25T05:15:53.642Z,10.70
2017-09-25T05:18:21.840Z,10.80
2017-09-25T05:20:49.625Z,10.80
2017-09-25T05:23:15.859Z,10.80
2017-09-25T05:25:42.072Z,10.80
2017-09-25T05:28:08.527Z,10.80
2017-09-25T05:30:35.876Z,10.90
2017-09-25T05:33:04.256Z,11.00
2017-09-25T05:35:31.689Z,11.00
2017-09-25T05:37:59.050Z,11.10
2017-09-25T05:40:25.298Z,11.10
2017-09-25T05:42:52.123Z,11.10
2017-09-25T05:45:18.607Z,11.10
2017-09-25T05:47:45.789Z,11.10
2017-09-25T05:50:13.318Z,11.10
2017-09-25T05:52:40.605Z,11.10
2017-09-25T05:55:07.748Z,11.10
2017-09-25T05:57:35.069Z,11.10
2017-09-25T06:00:02.403Z,11.20
2017-09-25T06:02:28.938Z,11.20
2017-09-25T06:04:55.720Z,11.20
2017-09-25T06:07:22.487Z,11.20
2017-09-25T06:09:48.715Z,11.30
2017-09-25T06:12:16.334Z,11.30
2017-09-25T06:14:43.875Z,11.20
2017-09-25T06:17:10.080Z,11.20
2017-09-25T06:19:36.939Z,11.20
2017-09-25T06:22:03.324Z,11.30
2017-09-25T06:24:30.359Z,11.40
2017-09-25T06:26:56.683Z,11.40
2017-09-25T06:29:22.900Z,11.40
2017-09-25T06:31:49.838Z,11.40
2017-09-25T06:34:17.109Z,11.50
2017-09-25T06:36:43.552Z,11.50
2017-09-25T06:39:10.594Z,11.50
2017-09-25T06:41:37.186Z,11.50
2017-09-25T06:44:03.410Z,11.60
2017-09-25T06:46:29.637Z,11.60
2017-09-25T06:48:57.192Z,11.70
2017-09-25T06:51:24.170Z,11.90
2017-09-25T06:53:52.599Z,11.90
2017-09-25T06:56:20.058Z,11.90
2017-09-25T06:58:46.285Z,11.90
2017-09-25T07:01:13.716Z,12.10
2017-09-25T07:03:40.725Z,12.10
2017-09-25T07:06:09.413Z,12.10
2017-09-25T07:08:37.180Z,12.20
2017-09-25T07:11:04.137Z,12.30
2017-09-25T07:13:32.071Z,12.30
2017-09-25T07:15:58.283Z,12.20
2017-09-25T07:18:25.464Z,12.30
2017-09-25T07:20:52.428Z,12.40
2017-09-25T07:23:19.219Z,12.40
2017-09-25T07:25:46.068Z,12.50
2017-09-25T07:28:12.808Z,12.50
2017-09-25T07:30:39.697Z,12.50
2017-09-25T07:33:06.444Z,12.50
2017-09-25T07:35:33.716Z,12.60
2017-09-25T07:38:01.303Z,12.50
2017-09-25T07:40:28.094Z,12.50
2017-09-25T07:42:54.552Z,12.40
2017-09-25T07:45:20.770Z,12.40
2017-09-25T07:47:48.331Z,12.40
2017-09-25T07:50:14.735Z,12.50
2017-09-25T07:52:42.398Z,12.50
2017-09-25T07:55:10.344Z,12.40
2017-09-25T07:57:36.551Z,12.40
2017-09-25T08:00:03.787Z,12.30
2017-09-25T08:02:30.804Z,12.40
2017-09-25T08:04:57.255Z,12.30
2017-09-25T08:07:24.434Z,12.40
2017-09-25T08:09:51.954Z,12.50
2017-09-25T08:12:18.775Z,12.50
2017-09-25T08:14:45.090Z,12.50
2017-09-25T08:17:12.062Z,12.60
2017-09-25T08:19:38.600Z,12.60
2017-09-25T08:22:05.312Z,12.60
2017-09-25T08:24:32.800Z,12.80
2017-09-25T08:26:59.755Z,12.70
2017-09-25T08:29:26.563Z,12.80
2017-09-25T08:31:53.799Z,13.00
2017-09-25T08:34:20.832Z,13.20
2017-09-25T08:36:47.285Z,13.10
2017-09-25T08:39:14.366Z,13.40
2017-09-25T08:41:41.153Z,13.40
2017-09-25T08:44:07.412Z,13.50
2017-09-25T08:46:34.078Z,13.60
2017-09-25T08:49:01.113Z,14.00
2017-09-25T08:51:27.815Z,14.00
2017-09-25T08:53:54.239Z,14.10
2017-09-25T08:56:21.230Z,14.40
2017-09-25T08:58:48.386Z,14.40
2017-09-25T09:01:15.138Z,14.50
2017-09-25T09:03:42.780Z,14.60
2017-09-25T09:06:08.993Z,14.90
2017-09-25T09:08:46.903Z,15.20
2017-09-25T09:11:13.594Z,15.20
2017-09-25T09:13:40.584Z,15.70
2017-09-25T09:16:06.857Z,15.70
2017-09-25T09:18:33.100Z,16.00
2017-09-25T09:20:59.597Z,16.10
2017-09-25T09:23:26.420Z,16.20
2017-09-25T09:25:53.235Z,16.40
2017-09-25T09:28:21.604Z,16.80
2017-09-25T09:30:47.940Z,16.80
2017-09-25T09:33:14.585Z,17.10
2017-09-25T09:35:41.555Z,17.00
2017-09-25T09:38:09.007Z,17.00
2017-09-25T09:40:37.066Z,16.80
2017-09-25T09:43:04.026Z,16.70
2017-09-25T09:45:30.950Z,16.70
2017-09-25T09:47:58.313Z,16.70
2017-09-25T09:50:26.661Z,16.60
2017-09-25T09:52:55.325Z,16.50
2017-09-25T09:55:22.339Z,16.60
2017-09-25T09:57:48.808Z,16.60
2017-09-25T10:00:16.478Z,16.60
2017-09-25T10:02:43.221Z,16.50
2017-09-25T10:05:09.835Z,16.60
2017-09-25T10:07:36.681Z,16.50
2017-09-25T10:10:03.098Z,16.50
2017-09-25T10:12:29.319Z,16.50
2017-09-25T10:14:56.011Z,16.50
2017-09-25T10:17:23.651Z,16.80
2017-09-25T10:19:50.273Z,16.70
2017-09-25T10:22:17.939Z,16.90
2017-09-25T10:24:44.411Z,16.90
2017-09-25T10:27:11.436Z,17.00
2017-09-25T10:29:37.703Z,17.00
2017-09-25T10:32:05.142Z,17.10
2017-09-25T10:34:33.318Z,17.00
2017-09-25T10:37:00.696Z,16.90
2017-09-25T10:39:27.156Z,16.90
2017-09-25T10:41:54.550Z,16.90
2017-09-25T10:44:21.422Z,16.80
2017-09-25T10:46:48.855Z,17.20
2017-09-25T10:49:15.960Z,17.40
2017-09-25T10:51:42.418Z,17.40
2017-09-25T10:54:09.427Z,17.80
2017-09-25T10:56:36.369Z,17.70
2017-09-25T10:59:03.509Z,18.00
2017-09-25T11:01:38.185Z,17.90
2017-09-25T11:04:04.375Z,18.00
2017-09-25T11:06:31.748Z,18.20
2017-09-25T11:08:57.960Z,18.40
2017-09-25T11:11:24.159Z,18.40
2017-09-25T11:13:51.481Z,18.30
2017-09-25T11:16:17.936Z,18.30
2017-09-25T11:18:45.845Z,18.90
2017-09-25T11:21:12.433Z,18.90
2017-09-25T11:23:38.711Z,19.10
2017-09-25T11:26:05.465Z,19.30
2017-09-25T11:28:32.044Z,19.60
2017-09-25T11:30:59.854Z,20.10
2017-09-25T11:33:26.344Z,20.10
2017-09-25T11:35:54.333Z,20.10
2017-09-25T11:38:20.785Z,20.10
2017-09-25T11:40:47.044Z,20.00
2017-09-25T11:43:14.337Z,19.90
2017-09-25T11:45:41.312Z,19.40
2017-09-25T11:48:07.544Z,19.40
2017-09-25T11:50:34.387Z,19.40
2017-09-25T11:53:00.597Z,19.30
2017-09-25T11:55:27.191Z,19.00
2017-09-25T11:57:55.175Z,18.80
2017-09-25T12:00:22.748Z,18.90
2017-09-25T12:02:50.112Z,19.10
2017-09-25T12:05:17.272Z,19.20
2017-09-25T12:07:43.516Z,19.20
2017-09-25T12:10:09.880Z,19.30
2017-09-25T12:12:36.890Z,19.60
2017-09-25T12:15:03.111Z,19.50
2017-09-25T12:17:30.045Z,19.60
2017-09-25T12:19:56.371Z,19.60
2017-09-25T12:22:22.820Z,19.60
2017-09-25T12:24:49.072Z,19.60
2017-09-25T12:27:16.199Z,19.60
2017-09-25T12:29:42.836Z,19.50
2017-09-25T12:32:10.886Z,19.60
2017-09-25T12:34:37.475Z,19.50
2017-09-25T12:37:03.728Z,19.40
2017-09-25T12:39:30.759Z,19.50
2017-09-25T12:41:57.037Z,19.40
2017-09-25T12:44:23.323Z,19.60
2017-09-25T12:46:50.290Z,19.60
2017-09-25T12:49:17.260Z,19.90
2017-09-25T12:51:44.696Z,19.80
2017-09-25T12:54:10.907Z,19.90
2017-09-25T12:56:38.249Z,19.80
2017-09-25T12:59:04.477Z,19.80
2017-09-25T13:01:31.345Z,19.90
2017-09-25T13:03:58.447Z,20.00
2017-09-25T13:06:25.119Z,20.00
2017-09-25T13:08:52.466Z,19.80
2017-09-25T13:11:19.524Z,19.80
2017-09-25T13:13:46.547Z,19.80
2017-09-25T13:16:13.007Z,19.80
2017-09-25T13:18:40.636Z,19.70
2017-09-25T13:21:07.700Z,19.70
2017-09-25T13:23:34.711Z,20.10
2017-09-25T13:26:02.545Z,20.00
2017-09-25T13:28:28.917Z,20.00
2017-09-25T13:30:55.681Z,19.80
2017-09-25T13:33:22.000Z,19.80
2017-09-25T13:35:48.492Z,19.90
2017-09-25T13:38:16.511Z,20.00
2017-09-25T13:40:43.326Z,20.00
2017-09-25T13:43:10.031Z,20.20
2017-09-25T13:45:36.315Z,20.30
2017-09-25T13:48:03.175Z,20.30
2017-09-25T13:50:31.176Z,20.50
2017-09-25T13:52:57.395Z,20.50
2017-09-25T13:55:23.643Z,20.70
2017-09-25T13:57:49.965Z,20.70
2017-09-25T14:02:48.244Z,20.40
2017-09-25T14:05:15.129Z,20.40
2017-09-25T14:07:41.362Z,20.40
2017-09-25T14:10:08.247Z,20.40
2017-09-25T14:12:34.490Z,20.30
2017-09-25T14:15:01.520Z,20.30
2017-09-25T14:17:29.856Z,20.20
2017-09-25T14:19:57.380Z,20.20
2017-09-25T14:22:23.680Z,20.20
2017-09-25T14:24:50.629Z,20.20
2017-09-25T14:27:17.594Z,20.10
2017-09-25T14:29:44.518Z,20.10
2017-09-25T14:32:11.504Z,20.00
2017-09-25T14:34:38.683Z,20.00
2017-09-25T14:37:05.805Z,19.80
2017-09-25T14:39:32.110Z,19.90
2017-09-25T14:41:59.262Z,20.00
2017-09-25T14:44:26.105Z,20.10
2017-09-25T14:46:54.325Z,20.20
2017-09-25T14:49:21.217Z,20.30
2017-09-25T14:51:47.588Z,20.30
2017-09-25T14:54:14.525Z,20.40
2017-09-25T14:56:40.973Z,20.50
2017-09-25T14:59:07.732Z,20.60
2017-09-25T15:01:35.114Z,20.70
2017-09-25T15:04:02.744Z,20.50
2017-09-25T15:06:30.738Z,20.30
2017-09-25T15:08:59.055Z,20.10
2017-09-25T15:11:25.312Z,20.10
2017-09-25T15:13:51.739Z,20.00
2017-09-25T15:16:17.971Z,20.00
2017-09-25T15:18:44.814Z,19.90
2017-09-25T15:21:11.628Z,19.80
2017-09-25T15:23:39.118Z,19.70
2017-09-25T15:26:07.067Z,19.80
2017-09-25T15:28:34.367Z,19.80
2017-09-25T15:31:01.335Z,19.70
2017-09-25T15:33:27.561Z,19.70
2017-09-25T15:35:54.934Z,19.70
2017-09-25T15:38:22.136Z,19.50
2017-09-25T15:40:49.410Z,19.40
2017-09-25T15:43:15.636Z,19.30
2017-09-25T15:45:43.193Z,19.40
2017-09-25T15:48:09.465Z,19.20
2017-09-25T15:50:38.674Z,19.10
2017-09-25T15:53:06.169Z,19.00
2017-09-25T15:55:33.019Z,19.00
2017-09-25T15:57:59.251Z,18.90
2017-09-25T16:00:26.157Z,18.80
2017-09-25T16:02:52.695Z,18.70
2017-09-25T16:05:21.407Z,18.80
2017-09-25T16:07:49.014Z,18.70
2017-09-25T16:10:17.072Z,18.60
2017-09-25T16:12:43.666Z,18.60
2017-09-25T16:15:11.112Z,18.50
2017-09-25T16:17:38.108Z,18.50
2017-09-25T16:20:04.320Z,18.50
2017-09-25T16:22:30.779Z,18.50
2017-09-25T16:24:58.215Z,18.30
2017-09-25T16:27:24.545Z,18.20
2017-09-25T16:29:50.738Z,18.10
2017-09-25T16:32:17.828Z,17.90
2017-09-25T16:34:44.044Z,17.80
2017-09-25T16:37:10.278Z,17.80
2017-09-25T16:39:36.492Z,17.70
2017-09-25T16:42:03.624Z,17.60
2017-09-25T16:44:30.117Z,17.50
2017-09-25T16:46:57.818Z,17.40
2017-09-25T16:49:24.824Z,17.30
2017-09-25T16:51:51.148Z,17.30
2017-09-25T16:54:17.364Z,17.10
2017-09-25T16:56:43.599Z,17.00
2017-09-25T16:59:10.412Z,16.80
2017-09-25T17:01:36.764Z,16.60
2017-09-25T17:04:03.095Z,16.50
2017-09-25T17:06:29.849Z,16.30
2017-09-25T17:08:56.052Z,16.30
2017-09-25T17:11:22.415Z,16.20
2017-09-25T17:13:50.185Z,16.00
2017-09-25T17:16:17.568Z,16.10
2017-09-25T17:18:45.082Z,16.10
2017-09-25T17:21:11.286Z,16.10
2017-09-25T17:23:38.149Z,16.00
2017-09-25T17:26:05.349Z,16.10
2017-09-25T17:28:32.409Z,16.00
2017-09-25T17:30:59.041Z,16.00
2017-09-25T17:33:25.752Z,16.00
2017-09-25T17:35:52.858Z,15.80
2017-09-25T17:38:19.459Z,15.80
2017-09-25T17:40:46.464Z,15.60
2017-09-25T17:43:12.787Z,15.60
2017-09-25T17:45:39.738Z,15.60
2017-09-25T17:48:06.119Z,15.40
2017-09-25T17:50:32.676Z,15.20
2017-09-25T17:52:58.923Z,15.10
2017-09-25T17:55:25.925Z,15.10
2017-09-25T17:57:53.384Z,15.00
2017-09-25T18:00:20.183Z,15.00
2017-09-25T18:02:46.945Z,15.00
2017-09-25T18:05:14.075Z,15.00
2017-09-25T18:07:41.803Z,15.00
2017-09-25T18:10:08.995Z,15.00
2017-09-25T18:12:35.850Z,15.10
2017-09-25T18:15:02.842Z,15.00
2017-09-25T18:17:29.128Z,14.90
2017-09-25T18:19:56.101Z,14.80
2017-09-25T18:22:22.524Z,14.80
2017-09-25T18:24:49.901Z,14.80
2017-09-25T18:27:16.115Z,14.70
2017-09-25T18:29:42.592Z,14.70
2017-09-25T18:32:09.192Z,14.80
2017-09-25T18:34:36.384Z,14.70
2017-09-25T18:37:03.364Z,14.70
2017-09-25T18:39:30.336Z,14.60
2017-09-25T18:41:56.624Z,14.60
2017-09-25T18:44:24.033Z,14.50
2017-09-25T18:46:50.655Z,14.50
2017-09-25T18:49:18.172Z,14.50
2017-09-25T18:51:47.377Z,14.50
2017-09-25T18:54:14.358Z,14.50
2017-09-25T18:56:42.628Z,14.50
2017-09-25T18:59:09.615Z,14.50
2017-09-25T19:01:37.001Z,14.40
2017-09-25T19:04:04.753Z,14.40
2017-09-25T19:06:32.272Z,14.40
2017-09-25T19:08:58.487Z,14.40
2017-09-25T19:11:24.919Z,14.40
2017-09-25T19:13:52.575Z,14.30
2017-09-25T19:16:19.396Z,14.30
2017-09-25T19:18:46.457Z,14.30
2017-09-25T19:21:13.014Z,14.30
2017-09-25T19:23:40.065Z,14.20
2017-09-25T19:26:06.307Z,14.10
2017-09-25T19:28:33.051Z,14.10
2017-09-25T19:30:59.430Z,14.10
2017-09-25T19:33:26.413Z,14.00
2017-09-25T19:35:53.955Z,14.00
2017-09-25T19:38:20.336Z,14.00
2017-09-25T19:40:47.920Z,13.90
2017-09-25T19:43:14.274Z,13.90
2017-09-25T19:45:41.248Z,13.80
2017-09-25T19:48:12.460Z,13.80
2017-09-25T19:50:46.471Z,13.70
2017-09-25T19:53:13.348Z,13.70
2017-09-25T19:55:40.016Z,13.70
2017-09-25T19:58:10.200Z,13.70
2017-09-25T20:00:36.529Z,13.70
2017-09-25T20:03:04.046Z,13.60
2017-09-25T20:05:30.834Z,13.60
2017-09-25T20:07:57.446Z,13.60
2017-09-25T20:10:24.722Z,13.70
2017-09-25T20:12:51.059Z,13.70
2017-09-25T20:15:24.154Z,13.70
2017-09-25T20:17:51.873Z,13.70
2017-09-25T20:20:18.760Z,13.70
2017-09-25T20:22:46.043Z,13.60
2017-09-25T20:25:13.008Z,13.70
2017-09-25T20:27:39.765Z,13.60
2017-09-25T20:30:06.537Z,13.60
2017-09-25T20:32:33.277Z,13.60
2017-09-25T20:35:00.895Z,13.50
2017-09-25T20:37:27.152Z,13.50
2017-09-25T20:39:53.718Z,13.50
2017-09-25T20:42:26.787Z,13.50
2017-09-25T20:44:53.095Z,13.50
2017-09-25T20:47:19.335Z,13.50
2017-09-25T20:49:45.826Z,13.50
2017-09-25T20:52:12.657Z,13.50
2017-09-25T20:54:40.280Z,13.40
2017-09-25T20:57:07.798Z,13.40
2017-09-25T20:59:34.063Z,13.40
2017-09-25T21:02:00.866Z,13.30
2017-09-25T21:04:27.604Z,13.30
2017-09-25T21:06:54.068Z,13.30
2017-09-25T21:09:21.707Z,13.40
2017-09-25T21:11:47.973Z,13.30
2017-09-25T21:14:14.253Z,13.30
2017-09-25T21:16:40.500Z,13.30
2017-09-25T21:19:06.915Z,13.30
2017-09-25T21:21:34.646Z,13.30
2017-09-25T21:24:01.752Z,13.30
2017-09-25T21:26:31.167Z,13.30
2017-09-25T21:28:58.252Z,13.30
2017-09-25T21:31:25.653Z,13.20
2017-09-25T21:33:52.703Z,13.10
2017-09-25T21:36:20.027Z,13.10
2017-09-25T21:38:46.444Z,13.10
2017-09-25T21:41:14.035Z,13.00
2017-09-25T21:43:40.488Z,13.00
2017-09-25T21:46:08.119Z,13.00
2017-09-25T21:48:34.339Z,13.00
2017-09-25T21:51:00.555Z,13.00
2017-09-25T21:53:27.537Z,13.00
2017-09-25T21:55:54.413Z,13.00
2017-09-25T21:58:22.634Z,13.00
2017-09-25T22:00:49.230Z,13.00
2017-09-25T22:03:16.091Z,12.90
2017-09-25T22:05:43.060Z,12.80
2017-09-25T22:08:09.799Z,12.80
2017-09-25T22:10:37.516Z,12.80
2017-09-25T22:13:04.334Z,12.80
2017-09-25T22:15:30.546Z,12.80
2017-09-25T22:17:56.861Z,12.80
2017-09-25T22:20:23.661Z,12.80
2017-09-25T22:22:50.165Z,12.80
2017-09-25T22:25:17.821Z,12.80
2017-09-25T22:27:44.384Z,12.80
2017-09-25T22:30:10.757Z,12.80
2017-09-25T22:32:37.548Z,12.80
2017-09-25T22:35:03.837Z,12.70
2017-09-25T22:37:30.688Z,12.70
2017-09-25T22:40:01.297Z,12.60
2017-09-25T22:42:34.441Z,12.60
2017-09-25T22:45:00.731Z,12.60
2017-09-25T22:47:27.421Z,12.60
2017-09-25T22:49:55.018Z,12.60
2017-09-25T22:52:21.949Z,12.60
2017-09-25T22:54:49.040Z,12.50
2017-09-25T22:57:16.956Z,12.50
2017-09-25T22:59:44.293Z,12.50
2017-09-25T23:02:10.625Z,12.50
2017-09-25T23:04:43.123Z,12.50
2017-09-25T23:07:10.302Z,12.40
2017-09-25T23:09:38.557Z,12.40
2017-09-25T23:12:05.651Z,12.50
2017-09-25T23:14:32.391Z,12.50
2017-09-25T23:16:58.973Z,12.50
2017-09-25T23:19:27.227Z,12.40
2017-09-25T23:21:54.316Z,12.30
2017-09-25T23:24:21.760Z,12.30
2017-09-25T23:26:48.552Z,12.30
2017-09-25T23:29:15.602Z,12.30
2017-09-25T23:31:43.644Z,12.20
2017-09-25T23:34:11.133Z,12.20
2017-09-25T23:36:38.872Z,12.20
2017-09-25T23:39:05.145Z,12.10
2017-09-25T23:41:32.430Z,12.20
2017-09-25T23:43:58.639Z,12.20
2017-09-25T23:46:26.540Z,12.20
2017-09-25T23:48:53.808Z,12.20
2017-09-25T23:51:20.184Z,12.20
2017-09-25T23:53:48.119Z,12.20
2017-09-25T23:56:14.859Z,12.20
2017-09-25T23:58:41.602Z,12.20
